createdAt,value
2019-06-25T03:30:14.310Z,12.60
2019-06-25T03:32:44.529Z,11.80
2019-06-25T03:35:14.838Z,12.27
2019-06-25T03:37:45.116Z,11.90
2019-06-25T03:40:17.175Z,11.87
2019-06-25T03:42:47.533Z,11.50
2019-06-25T03:45:19.624Z,12.07
2019-06-25T03:47:49.824Z,11.10
2019-06-25T03:50:19.977Z,10.93
2019-06-25T03:52:50.297Z,11.50
2019-06-25T03:55:20.619Z,11.20
2019-06-25T03:57:50.845Z,11.68
2019-06-25T04:00:23.540Z,12.13
2019-06-25T04:02:56.129Z,11.37
2019-06-25T04:05:26.261Z,11.77
2019-06-25T04:07:56.407Z,11.25
2019-06-25T04:10:26.546Z,12.23
2019-06-25T04:12:57.611Z,11.20
2019-06-25T04:15:27.905Z,12.10
2019-06-25T04:17:58.145Z,12.03
2019-06-25T04:20:28.323Z,11.70
2019-06-25T04:22:58.623Z,11.83
2019-06-25T04:25:28.838Z,11.87
2019-06-25T04:27:59.033Z,11.20
2019-06-25T04:30:29.301Z,11.70
2019-06-25T04:35:30.576Z,10.60
2019-06-25T04:38:00.761Z,11.50
2019-06-25T04:40:30.960Z,12.00
2019-06-25T04:43:01.344Z,11.93
2019-06-25T04:45:31.501Z,11.50
2019-06-25T04:48:02.533Z,11.50
2019-06-25T04:50:32.726Z,11.20
2019-06-25T04:53:02.984Z,11.70
2019-06-25T04:55:34.416Z,11.90
2019-06-25T04:58:04.744Z,12.20
2019-06-25T05:00:35.728Z,11.67
2019-06-25T05:03:05.942Z,10.83
2019-06-25T05:05:36.274Z,11.08
2019-06-25T05:08:06.674Z,10.90
2019-06-25T05:10:38.214Z,11.77
2019-06-25T05:13:08.438Z,11.37
2019-06-25T05:15:40.260Z,10.80
2019-06-25T05:18:10.411Z,10.75
2019-06-25T05:20:42.208Z,10.80
2019-06-25T05:23:12.870Z,11.80
2019-06-25T05:25:44.104Z,11.37
2019-06-25T05:28:14.420Z,12.20
2019-06-25T05:30:44.773Z,10.37
2019-06-25T05:33:15.247Z,11.67
2019-06-25T05:35:50.439Z,12.23
2019-06-25T05:38:21.519Z,12.00
2019-06-25T05:40:52.760Z,11.70
2019-06-25T05:43:22.988Z,11.93
2019-06-25T05:45:53.361Z,11.03
2019-06-25T05:48:23.682Z,12.37
2019-06-25T05:50:54.705Z,11.10
2019-06-25T05:53:25.829Z,11.90
2019-06-25T05:55:56.022Z,11.80
2019-06-25T05:58:26.239Z,11.67
2019-06-25T06:00:56.570Z,11.70
2019-06-25T06:03:26.726Z,12.60
2019-06-25T06:05:57.413Z,11.95
2019-06-25T06:08:28.758Z,12.70
2019-06-25T06:10:58.952Z,11.63
2019-06-25T06:13:30.740Z,11.50
2019-06-25T06:16:00.903Z,12.30
2019-06-25T06:18:39.502Z,12.33
2019-06-25T06:21:09.885Z,11.50
2019-06-25T06:23:40.300Z,10.77
2019-06-25T06:26:17.999Z,11.70
2019-06-25T06:28:43.106Z,11.47
2019-06-25T06:31:17.642Z,11.03
2019-06-25T06:33:49.973Z,10.77
2019-06-25T06:36:18.853Z,10.77
2019-06-25T06:38:49.129Z,10.53
2019-06-25T06:41:19.356Z,11.47
2019-06-25T06:43:49.623Z,11.33
2019-06-25T06:46:19.906Z,11.00
2019-06-25T06:48:50.070Z,10.10
2019-06-25T06:51:20.403Z,10.10
2019-06-25T06:53:50.605Z,10.70
2019-06-25T06:56:20.820Z,11.10
2019-06-25T06:58:51.532Z,10.00
2019-06-25T07:01:21.739Z,11.00
2019-06-25T07:03:53.688Z,10.33
2019-06-25T07:06:24.036Z,10.97
2019-06-25T07:08:54.330Z,10.80
2019-06-25T07:11:24.775Z,10.37
2019-06-25T07:13:54.967Z,10.10
2019-06-25T07:16:25.134Z,10.00
2019-06-25T07:18:56.191Z,11.07
2019-06-25T07:21:27.169Z,10.68
2019-06-25T07:23:57.339Z,10.50
2019-06-25T07:26:27.502Z,9.63
2019-06-25T07:28:58.697Z,10.90
2019-06-25T07:31:29.772Z,10.47
2019-06-25T07:34:09.134Z,10.40
2019-06-25T07:36:31.789Z,10.23
2019-06-25T07:39:01.890Z,10.30
2019-06-25T07:41:32.083Z,10.23
2019-06-25T07:44:02.179Z,10.83
2019-06-25T07:46:32.535Z,9.38
2019-06-25T07:49:02.866Z,10.03
2019-06-25T07:51:33.187Z,10.53
2019-06-25T07:54:03.322Z,10.50
2019-06-25T07:56:36.984Z,9.28
2019-06-25T07:59:05.394Z,9.83
2019-06-25T08:01:37.365Z,9.90
2019-06-25T08:04:07.623Z,10.50
2019-06-25T08:06:37.779Z,9.90
2019-06-25T08:09:09.610Z,11.07
2019-06-25T08:11:40.696Z,10.57
2019-06-25T08:14:10.874Z,10.40
2019-06-25T08:16:41.093Z,10.30
2019-06-25T08:19:11.285Z,10.57
2019-06-25T08:21:41.553Z,11.43
2019-06-25T08:24:12.373Z,9.90
2019-06-25T08:26:42.735Z,10.30
2019-06-25T08:29:14.746Z,10.90
2019-06-25T08:31:44.925Z,10.40
2019-06-25T08:34:15.150Z,10.05
2019-06-25T08:36:46.269Z,10.70
2019-06-25T08:39:17.200Z,11.00
2019-06-25T08:41:47.390Z,10.57
2019-06-25T08:44:17.644Z,11.43
2019-06-25T08:46:47.844Z,10.77
2019-06-25T08:49:21.903Z,11.30
2019-06-25T08:51:52.099Z,10.70
2019-06-25T08:54:22.402Z,10.70
2019-06-25T08:56:52.675Z,10.53
2019-06-25T08:59:25.969Z,9.90
2019-06-25T09:01:54.731Z,9.90
2019-06-25T09:04:25.020Z,9.60
2019-06-25T09:06:55.221Z,9.20
2019-06-25T09:09:26.191Z,9.45
2019-06-25T09:11:57.180Z,10.90
2019-06-25T09:14:27.582Z,9.07
2019-06-25T09:16:59.685Z,10.07
2019-06-25T09:19:30.077Z,9.67
2019-06-25T09:22:00.230Z,12.47
2019-06-25T09:24:31.573Z,10.00
2019-06-25T09:27:03.287Z,10.07
2019-06-25T09:29:34.345Z,9.70
2019-06-25T09:32:05.405Z,10.20
2019-06-25T09:34:36.150Z,10.50
2019-06-25T09:37:06.584Z,10.43
2019-06-25T09:39:41.633Z,9.00
2019-06-25T09:42:10.087Z,9.50
2019-06-25T09:44:40.144Z,10.00
2019-06-25T09:47:10.331Z,10.10
2019-06-25T09:49:40.868Z,9.50
2019-06-25T09:52:11.055Z,10.37
2019-06-25T09:54:41.657Z,10.13
2019-06-25T09:57:11.859Z,10.10
2019-06-25T09:59:42.090Z,10.40
2019-06-25T10:02:12.209Z,9.10
2019-06-25T10:04:42.498Z,9.73
2019-06-25T10:07:15.589Z,8.73
2019-06-25T10:09:44.679Z,9.63
2019-06-25T10:12:15.549Z,9.33
2019-06-25T10:14:45.742Z,9.40
2019-06-25T10:17:16.693Z,9.13
2019-06-25T10:19:46.881Z,9.43
2019-06-25T10:22:17.894Z,9.93
2019-06-25T10:24:48.088Z,8.90
2019-06-25T10:27:18.324Z,9.43
2019-06-25T10:29:49.452Z,9.43
2019-06-25T10:32:20.519Z,9.50
2019-06-25T10:34:50.633Z,8.33
2019-06-25T10:37:21.570Z,8.63
2019-06-25T10:39:51.804Z,8.90
2019-06-25T10:42:23.024Z,8.90
2019-06-25T10:44:53.239Z,10.37
2019-06-25T10:47:23.537Z,9.27
2019-06-25T10:49:53.830Z,8.07
2019-06-25T10:52:24.807Z,8.70
2019-06-25T10:54:54.993Z,9.30
2019-06-25T10:57:25.374Z,8.70
2019-06-25T10:59:55.837Z,8.93
2019-06-25T11:02:29.108Z,8.33
2019-06-25T11:04:58.086Z,8.60
2019-06-25T11:07:29.034Z,7.67
2019-06-25T11:09:59.252Z,8.75
2019-06-25T11:12:30.274Z,8.60
2019-06-25T11:15:01.349Z,8.40
2019-06-25T11:17:31.965Z,7.90
2019-06-25T11:20:02.154Z,7.27
2019-06-25T11:22:32.516Z,8.40
2019-06-25T11:25:02.770Z,8.33
2019-06-25T11:27:32.925Z,8.77
2019-06-25T11:30:04.013Z,7.80
2019-06-25T11:32:35.191Z,8.27
2019-06-25T11:35:06.556Z,8.53
2019-06-25T11:37:36.798Z,9.50
2019-06-25T11:40:07.145Z,8.40
2019-06-25T11:42:38.360Z,8.83
2019-06-25T11:45:09.389Z,8.20
2019-06-25T11:47:39.531Z,7.90
2019-06-25T11:50:10.370Z,8.80
2019-06-25T11:52:41.301Z,7.93
2019-06-25T11:55:11.556Z,6.97
2019-06-25T11:57:41.752Z,8.50
2019-06-25T12:00:13.014Z,7.97
2019-06-25T12:02:43.240Z,8.83
2019-06-25T12:05:13.601Z,8.40
2019-06-25T12:07:43.800Z,6.30
2019-06-25T12:10:14.976Z,7.80
2019-06-25T12:12:45.974Z,7.60
2019-06-25T12:15:16.379Z,9.07
2019-06-25T12:17:47.359Z,7.70
2019-06-25T12:20:17.727Z,8.30
2019-06-25T12:22:47.902Z,8.50
2019-06-25T12:25:18.163Z,7.40
2019-06-25T12:27:48.529Z,8.40
2019-06-25T12:30:18.865Z,8.40
2019-06-25T12:32:49.303Z,8.60
2019-06-25T12:35:20.592Z,6.00
2019-06-25T12:37:52.413Z,10.80
2019-06-25T12:40:22.758Z,8.47
2019-06-25T12:42:53.031Z,5.40
2019-06-25T12:45:23.245Z,8.73
2019-06-25T12:47:53.497Z,9.50
2019-06-25T12:50:24.806Z,8.83
2019-06-25T12:52:55.775Z,5.25
2019-06-25T12:55:26.081Z,8.38
2019-06-25T12:57:57.148Z,9.20
2019-06-25T13:00:28.612Z,8.63
2019-06-25T13:02:58.837Z,9.10
2019-06-25T13:05:29.090Z,9.07
2019-06-25T13:07:59.311Z,9.30
2019-06-25T13:10:43.118Z,9.23
2019-06-25T13:13:01.494Z,9.10
2019-06-25T13:15:31.694Z,10.53
2019-06-25T13:18:01.895Z,9.48
2019-06-25T13:20:32.035Z,9.43
2019-06-25T13:23:02.403Z,10.53
2019-06-25T13:25:33.582Z,10.93
2019-06-25T13:28:06.136Z,10.32
2019-06-25T13:30:36.400Z,10.30
2019-06-25T13:33:06.624Z,12.45
2019-06-25T13:35:36.922Z,11.53
2019-06-25T13:38:08.791Z,10.23
2019-06-25T13:40:39.010Z,11.73
2019-06-25T13:43:12.509Z,14.60
2019-06-25T13:45:42.838Z,12.93
2019-06-25T13:48:13.001Z,14.23
2019-06-25T13:50:43.945Z,13.17
2019-06-25T13:53:14.154Z,13.88
2019-06-25T13:55:44.321Z,12.90
2019-06-25T13:58:17.541Z,14.93
2019-06-25T14:00:47.815Z,13.72
2019-06-25T14:03:20.876Z,15.08
2019-06-25T14:05:51.058Z,13.55
2019-06-25T14:08:21.325Z,14.00
2019-06-25T14:10:51.497Z,14.65
2019-06-25T14:13:21.763Z,16.93
2019-06-25T14:15:52.048Z,13.90
2019-06-25T14:18:22.307Z,15.20
2019-06-25T14:20:52.524Z,15.90
2019-06-25T14:23:22.753Z,14.43
2019-06-25T14:26:08.939Z,16.00
2019-06-25T14:28:24.966Z,15.32
2019-06-25T14:30:55.946Z,16.75
2019-06-25T14:33:27.062Z,14.36
2019-06-25T14:35:58.287Z,14.57
2019-06-25T14:38:29.652Z,4.20
2019-06-25T14:40:59.870Z,12.60
2019-06-25T14:43:30.277Z,14.23
2019-06-25T14:46:00.513Z,17.62
2019-06-25T14:48:30.727Z,17.57
2019-06-25T14:51:00.959Z,16.32
2019-06-25T14:53:31.212Z,17.57
2019-06-25T14:56:01.459Z,16.48
2019-06-25T14:58:35.082Z,3.70
2019-06-25T15:01:06.123Z,13.30
2019-06-25T15:03:36.350Z,16.05
2019-06-25T15:06:06.966Z,17.93
2019-06-25T15:08:37.181Z,18.82
2019-06-25T15:11:07.459Z,19.02
2019-06-25T15:13:37.839Z,20.23
2019-06-25T15:16:08.062Z,21.62
2019-06-25T15:18:38.354Z,22.57
2019-06-25T15:21:10.163Z,20.02
2019-06-25T15:23:41.720Z,19.57
2019-06-25T15:26:12.449Z,27.50
2019-06-25T15:28:42.781Z,21.93
2019-06-25T15:31:13.744Z,27.00
2019-06-25T15:33:44.058Z,25.72
2019-06-25T15:36:15.010Z,25.00
2019-06-25T15:38:47.699Z,23.90
2019-06-25T15:41:17.235Z,24.30
2019-06-25T15:43:47.477Z,22.65
2019-06-25T15:46:17.683Z,22.20
2019-06-25T15:48:48.101Z,22.80
2019-06-25T15:51:20.701Z,20.60
2019-06-25T15:53:50.907Z,24.35
2019-06-25T15:56:21.891Z,23.25
2019-06-25T15:58:52.164Z,25.90
2019-06-25T16:01:24.172Z,27.65
2019-06-25T16:03:54.607Z,22.67
2019-06-25T16:06:25.049Z,24.82
2019-06-25T16:09:03.190Z,28.87
2019-06-25T16:11:27.392Z,25.40
2019-06-25T16:13:57.563Z,26.48
2019-06-25T16:16:29.315Z,28.17
2019-06-25T16:19:00.465Z,24.80
2019-06-25T16:21:30.614Z,26.23
2019-06-25T16:24:00.864Z,24.57
2019-06-25T16:26:33.987Z,22.17
2019-06-25T16:29:05.100Z,21.97
2019-06-25T16:31:36.904Z,23.10
2019-06-25T16:34:07.152Z,22.77
2019-06-25T16:36:37.613Z,24.63
2019-06-25T16:39:18.647Z,19.50
2019-06-25T16:41:41.960Z,21.82
2019-06-25T16:44:12.246Z,19.77
2019-06-25T16:46:42.627Z,19.23
2019-06-25T16:49:12.884Z,20.10
2019-06-25T16:51:43.107Z,19.98
2019-06-25T16:54:13.495Z,16.97
2019-06-25T16:56:43.799Z,18.80
2019-06-25T16:59:15.578Z,15.75
2019-06-25T17:01:45.790Z,16.25
